今朝の羽田(2017/04/14)

HKE624/B-LEC(A321)

JAL36/JA701J(B772)

ANA850/JA850A(B788)

ANA8554/JA812A(B788)

JAL34/JA702J(B772)

APJ898/JA807P(A320)

ANA880/JA837J(B789)

ANA844/JA888A(B789)

COSMO(GLF4)

ANA968/JA835A(B788)

*TTW217/B-50008(A320)

ANA204/JA784A(B77W)

SIA636/9V-SWW(B77W)

QFA25/VH-OEH(B744)

THA682/HS-TGW(B744) STAR ALLIANCE c/s

*JAL8121/JA312J(B738)

ANA856/JA883A(B789)

*AAR177/HL7747(A333)

JAL70/JA821J(B788)

*HKE625/B-LEC(A321)

*APJ859/JA807P(A320)

BAW7/G-STBE(B77W)

RJTT 132000Z 34008KT CAVOK 10/02 Q1018 NOSIG RMK A3007

RJTT 132100Z 35006KT CAVOK 11/02 Q1018 BECMG 12005KT

RJTT 132200Z 31004KT CAVOK 12/02 Q1019 BECMG 18005KT RMK A3009

今朝の羽田は晴れています。